Time;durP1;ratioP1;P1;durP2;ratioP2;P2;SDS_P1;SDS_P2;PMS_P1;PMS_P2;Temp;Humidity;BMP_temperature;BMP_pressure;BME280_temperature;BME280_humidity;BME280_pressure;Samples;Min_cycle;Max_cycle;Signal;HPM_P1;HPM_P2
2022/06/21 00:01:09;;;;;;;6.07;3.90;;;;;;;;;;4305794;33;20537;-65
2022/06/21 00:03:35;;;;;;;6.25;3.35;;;;;;;;;;4305702;33;20451;-65
2022/06/21 00:33:44;;;;;;;5.68;4.30;;;;;;;;;;4623128;27;20130;-64
2022/06/21 00:36:31;;;;;;;5.70;4.57;;;;;;;;;;4261991;33;20119;-64
2022/06/21 00:38:58;;;;;;;10.10;4.25;;;;;;;;;;4271906;33;20127;-66
2022/06/21 00:41:54;;;;;;;13.45;4.87;;;;;;;;;;4289881;33;20119;-65
2022/06/21 00:44:30;;;;;;;6.35;4.43;;;;;;;;;;4275146;33;20092;-65
2022/06/21 00:47:13;;;;;;;6.45;4.22;;;;;;;;;;4276828;33;20107;-66
2022/06/21 00:49:55;;;;;;;11.15;5.07;;;;;;;;;;4289718;33;20096;-65
2022/06/21 00:52:39;;;;;;;10.05;5.10;;;;;;;;;;4269963;33;20096;-63
2022/06/21 00:55:16;;;;;;;8.70;4.75;;;;;;;;;;4275679;33;20491;-65
2022/06/21 00:57:54;;;;;;;5.05;4.28;;;;;;;;;;4264055;33;20124;-65
2022/06/21 01:00:36;;;;;;;7.68;4.87;;;;;;;;;;4290034;33;20150;-65
2022/06/21 01:03:12;;;;;;;11.40;5.00;;;;;;;;;;4289502;33;20131;-65
2022/06/21 01:05:41;;;;;;;9.00;5.07;;;;;;;;;;4289457;33;20092;-65
2022/06/21 01:08:08;;;;;;;10.50;4.32;;;;;;;;;;4276665;33;20127;-65
2022/06/21 01:10:34;;;;;;;8.57;4.75;;;;;;;;;;4276402;33;20091;-65
2022/06/21 01:13:05;;;;;;;7.30;4.35;;;;;;;;;;4276108;33;20439;-65
2022/06/21 01:15:34;;;;;;;5.28;4.00;;;;;;;;;;4276445;33;20198;-65
2022/06/21 01:18:02;;;;;;;7.68;3.97;;;;;;;;;;4276426;33;20119;-65
2022/06/21 01:20:34;;;;;;;8.43;4.78;;;;;;;;;;4276069;33;20123;-65
2022/06/21 01:23:03;;;;;;;5.85;4.25;;;;;;;;;;4276094;33;20503;-65
2022/06/21 01:25:53;;;;;;;8.43;4.43;;;;;;;;;;4289738;33;20164;-65
2022/06/21 01:28:20;;;;;;;5.03;3.17;;;;;;;;;;4276126;33;20112;-66
2022/06/21 01:30:49;;;;;;;6.30;3.22;;;;;;;;;;4276250;33;20123;-66
2022/06/21 01:33:16;;;;;;;10.13;5.47;;;;;;;;;;4275959;33;20122;-66
2022/06/21 01:35:51;;;;;;;7.10;4.12;;;;;;;;;;4289436;33;20107;-65
2022/06/21 01:38:23;;;;;;;6.47;3.70;;;;;;;;;;4289727;33;20184;-66
2022/06/21 01:40:53;;;;;;;4.20;3.62;;;;;;;;;;4289551;33;20119;-66
2022/06/21 01:43:23;;;;;;;7.70;4.00;;;;;;;;;;4275943;33;20183;-65
2022/06/21 01:46:00;;;;;;;5.00;3.35;;;;;;;;;;4289705;33;20099;-65
2022/06/21 01:48:32;;;;;;;9.80;3.90;;;;;;;;;;4289596;33;20110;-65
2022/06/21 01:51:03;;;;;;;7.22;3.67;;;;;;;;;;4289608;33;20883;-65
2022/06/21 01:53:29;;;;;;;4.62;4.05;;;;;;;;;;4274597;33;20192;-65
2022/06/21 01:55:59;;;;;;;5.20;3.58;;;;;;;;;;4289669;33;20103;-64
2022/06/21 01:58:29;;;;;;;4.37;3.33;;;;;;;;;;4275980;33;20748;-65
2022/06/21 02:01:21;;;;;;;5.70;3.92;;;;;;;;;;4276229;33;20198;-65
2022/06/21 02:03:50;;;;;;;8.52;3.70;;;;;;;;;;4288737;33;20120;-65
2022/06/21 02:06:17;;;;;;;7.12;3.72;;;;;;;;;;4289195;33;20574;-65
2022/06/21 02:08:47;;;;;;;7.95;3.45;;;;;;;;;;4289314;33;20116;-66
2022/06/21 02:11:40;;;;;;;5.68;3.42;;;;;;;;;;4275930;33;20114;-65
2022/06/21 02:14:30;;;;;;;7.05;3.85;;;;;;;;;;4275629;33;20135;-65
2022/06/21 02:17:17;;;;;;;9.07;3.95;;;;;;;;;;4288738;33;20103;-65
2022/06/21 02:20:04;;;;;;;6.07;3.40;;;;;;;;;;4289052;33;20100;-66
2022/06/21 02:22:31;;;;;;;6.70;3.70;;;;;;;;;;4275599;33;20609;-66
2022/06/21 02:24:57;;;;;;;8.80;3.60;;;;;;;;;;4289215;33;20185;-65
2022/06/21 02:27:27;;;;;;;6.85;4.50;;;;;;;;;;4275659;33;20096;-66
2022/06/21 02:29:55;;;;;;;6.35;3.33;;;;;;;;;;4289185;33;20123;-66
2022/06/21 02:32:51;;;;;;;4.87;3.53;;;;;;;;;;4275689;33;20119;-65
2022/06/21 02:35:22;;;;;;;;;;;;;;;;;;4258726;33;20135;-65
2022/06/21 02:37:49;;;;;;;6.50;3.53;;;;;;;;;;4263887;33;19989;-65
2022/06/21 02:40:21;;;;;;;9.20;3.30;;;;;;;;;;4276017;33;20092;-65
2022/06/21 02:42:49;;;;;;;7.93;3.42;;;;;;;;;;4275383;33;20210;-66
2022/06/21 02:45:26;;;;;;;7.70;4.00;;;;;;;;;;4288936;33;20111;-62
2022/06/21 02:47:53;;;;;;;7.70;3.20;;;;;;;;;;4275433;33;20130;-63
2022/06/21 02:50:25;;;;;;;3.65;2.75;;;;;;;;;;4275851;33;20509;-65
2022/06/21 02:52:52;;;;;;;3.62;3.10;;;;;;;;;;4287507;33;20119;-65
2022/06/21 02:55:20;;;;;;;6.35;3.25;;;;;;;;;;4275680;33;20104;-64
2022/06/21 02:57:58;;;;;;;5.53;2.80;;;;;;;;;;4275016;33;20126;-65
2022/06/21 03:00:24;;;;;;;6.18;3.03;;;;;;;;;;4288870;33;20123;-65
2022/06/21 03:02:51;;;;;;;6.32;3.45;;;;;;;;;;4275069;33;20140;-66
2022/06/21 03:05:20;;;;;;;4.72;2.75;;;;;;;;;;4288736;33;20570;-65
2022/06/21 03:07:53;;;;;;;3.72;2.72;;;;;;;;;;4275128;33;20107;-65
2022/06/21 03:10:22;;;;;;;4.18;3.00;;;;;;;;;;4276116;33;20115;-65
2022/06/21 03:12:57;;;;;;;12.75;3.75;;;;;;;;;;4275325;33;20543;-66
2022/06/21 03:15:24;;;;;;;3.80;3.40;;;;;;;;;;4275587;33;20126;-66
2022/06/21 03:18:00;;;;;;;3.97;2.55;;;;;;;;;;4274869;33;20507;-65
2022/06/21 03:20:27;;;;;;;5.50;3.05;;;;;;;;;;4275681;33;20099;-66
2022/06/21 03:22:54;;;;;;;5.43;2.85;;;;;;;;;;4288409;33;20499;-66
2022/06/21 03:25:43;;;;;;;4.20;2.83;;;;;;;;;;4288429;33;20115;-66
2022/06/21 03:28:39;;;;;;;6.25;3.30;;;;;;;;;;4288340;33;20119;-65
2022/06/21 03:31:25;;;;;;;3.62;2.80;;;;;;;;;;4276513;33;20574;-67
2022/06/21 03:33:54;;;;;;;5.37;3.45;;;;;;;;;;4268893;33;20203;-67
2022/06/21 03:36:23;;;;;;;4.95;2.90;;;;;;;;;;4275812;33;20500;-71
2022/06/21 03:38:53;;;;;;;3.97;2.70;;;;;;;;;;4274751;33;20400;-66
2022/06/21 03:44:27;;;;;;;6.20;2.45;;;;;;;;;;4274111;33;20558;-66
2022/06/21 03:47:15;;;;;;;4.53;2.83;;;;;;;;;;4272734;33;20112;-64
2022/06/21 03:49:53;;;;;;;6.00;2.75;;;;;;;;;;4274389;33;20198;-65
2022/06/21 03:52:43;;;;;;;6.28;2.50;;;;;;;;;;4271086;33;20134;-67
2022/06/21 03:55:36;;;;;;;5.47;2.75;;;;;;;;;;4274531;33;20417;-66
2022/06/21 03:58:12;;;;;;;5.50;2.87;;;;;;;;;;4274125;33;20088;-65
2022/06/21 04:00:55;;;;;;;5.32;3.03;;;;;;;;;;4260140;33;20107;-63
2022/06/21 04:03:25;;;;;;;6.47;2.80;;;;;;;;;;4260340;33;20168;-65
2022/06/21 04:06:01;;;;;;;6.37;2.65;;;;;;;;;;4272664;33;20220;-64
2022/06/21 04:08:37;;;;;;;3.75;2.33;;;;;;;;;;4262615;33;20592;-64
2022/06/21 04:11:18;;;;;;;5.00;2.37;;;;;;;;;;4261658;33;20108;-65
2022/06/21 04:13:50;;;;;;;4.78;2.80;;;;;;;;;;4250190;33;20103;-64
2022/06/21 04:16:31;;;;;;;4.12;3.25;;;;;;;;;;4275440;33;20127;-64
2022/06/21 04:19:04;;;;;;;8.60;2.60;;;;;;;;;;4275384;33;20550;-65
2022/06/21 04:22:02;;;;;;;4.68;2.37;;;;;;;;;;4274719;33;20187;-65
2022/06/21 04:25:07;;;;;;;4.53;2.80;;;;;;;;;;4232384;33;20131;-63
2022/06/21 04:27:45;;;;;;;3.47;2.53;;;;;;;;;;4269791;33;20093;-63
2022/06/21 04:30:17;;;;;;;3.72;2.20;;;;;;;;;;4262502;33;20112;-65
2022/06/21 04:32:44;;;;;;;6.70;2.60;;;;;;;;;;4274413;33;20099;-65
2022/06/21 04:35:16;;;;;;;5.43;2.30;;;;;;;;;;4264619;33;20531;-65
2022/06/21 04:37:45;;;;;;;5.00;2.60;;;;;;;;;;4275936;33;20203;-66
2022/06/21 04:40:21;;;;;;;8.35;2.25;;;;;;;;;;4289458;33;20287;-66
2022/06/21 04:42:59;;;;;;;3.97;2.03;;;;;;;;;;4276758;33;20222;-65
2022/06/21 04:45:35;;;;;;;2.28;2.08;;;;;;;;;;4276610;33;20554;-65
2022/06/21 04:48:17;;;;;;;3.62;1.80;;;;;;;;;;4289909;33;20119;-68
2022/06/21 04:50:47;;;;;;;2.60;1.80;;;;;;;;;;4289989;33;20098;-67
2022/06/21 04:53:19;;;;;;;4.35;1.83;;;;;;;;;;4275459;33;20104;-66
2022/06/21 04:55:54;;;;;;;2.58;1.87;;;;;;;;;;4289969;33;20110;-67
2022/06/21 04:58:20;;;;;;;;;;;;;;;;;;4276924;33;20136;-64
2022/06/21 05:00:46;;;;;;;3.53;2.05;;;;;;;;;;4264651;33;20104;-65
2022/06/21 05:03:35;;;;;;;4.87;2.12;;;;;;;;;;4289609;33;20225;-65
2022/06/21 05:06:01;;;;;;;5.95;2.20;;;;;;;;;;4268749;33;20104;-65
2022/06/21 05:08:27;;;;;;;5.97;1.90;;;;;;;;;;4282162;33;20118;-65
2022/06/21 05:10:56;;;;;;;2.70;2.03;;;;;;;;;;4276540;33;20122;-65
2022/06/21 05:13:42;;;;;;;4.57;1.90;;;;;;;;;;4276462;33;20127;-66
2022/06/21 05:16:27;;;;;;;3.15;2.00;;;;;;;;;;4276114;33;20119;-66
2022/06/21 05:19:03;;;;;;;6.97;2.60;;;;;;;;;;4276380;33;20096;-65
2022/06/21 05:21:32;;;;;;;3.33;1.87;;;;;;;;;;4276254;33;20142;-65
2022/06/21 05:23:59;;;;;;;7.85;1.95;;;;;;;;;;4289618;33;20116;-69
2022/06/21 05:26:42;;;;;;;3.20;2.17;;;;;;;;;;4264239;33;20092;-64
2022/06/21 05:29:17;;;;;;;2.60;1.92;;;;;;;;;;4289591;33;20213;-64
2022/06/21 05:31:45;;;;;;;3.83;2.03;;;;;;;;;;4289566;33;20099;-64
2022/06/21 05:34:21;;;;;;;1.12;1.12;;;;;;;;;;4275789;33;20203;-64
2022/06/21 05:37:01;;;;;;;4.50;2.05;;;;;;;;;;4275940;33;20174;-65
2022/06/21 05:39:31;;;;;;;9.35;2.10;;;;;;;;;;4289454;33;20225;-66
2022/06/21 05:42:01;;;;;;;4.62;2.35;;;;;;;;;;4276257;33;20103;-63
2022/06/21 05:44:41;;;;;;;2.42;1.70;;;;;;;;;;4276041;33;20214;-63
2022/06/21 05:47:12;;;;;;;5.15;1.90;;;;;;;;;;4289076;33;20522;-63
2022/06/21 05:49:40;;;;;;;4.07;1.77;;;;;;;;;;4276041;33;20506;-62
2022/06/21 05:52:11;;;;;;;3.95;1.83;;;;;;;;;;4288941;33;20108;-62
2022/06/21 05:54:48;;;;;;;1.92;1.60;;;;;;;;;;4275664;33;20197;-61
2022/06/21 05:57:17;;;;;;;4.85;1.83;;;;;;;;;;4263753;33;20104;-63
2022/06/21 05:59:43;;;;;;;3.58;2.50;;;;;;;;;;4289378;33;20103;-63
2022/06/21 06:02:38;;;;;;;3.12;1.67;;;;;;;;;;4289185;33;20135;-68
2022/06/21 06:05:13;;;;;;;5.80;1.87;;;;;;;;;;4267514;33;20116;-66
2022/06/21 06:07:58;;;;;;;4.75;2.03;;;;;;;;;;4262803;33;20523;-66
2022/06/21 06:10:25;;;;;;;5.45;1.77;;;;;;;;;;4276149;33;20095;-66
2022/06/21 06:12:57;;;;;;;3.87;2.00;;;;;;;;;;4275626;33;20134;-66
2022/06/21 06:15:27;;;;;;;5.50;1.90;;;;;;;;;;4276038;33;20095;-65
2022/06/21 06:17:56;;;;;;;3.12;2.17;;;;;;;;;;4275496;33;20125;-66
2022/06/21 06:20:28;;;;;;;4.30;2.00;;;;;;;;;;4275917;33;20135;-65
2022/06/21 06:23:02;;;;;;;3.58;2.25;;;;;;;;;;4287541;33;20122;-66
2022/06/21 06:25:40;;;;;;;1.50;1.40;;;;;;;;;;4288629;33;20112;-64
2022/06/21 06:28:15;;;;;;;2.10;1.50;;;;;;;;;;4275199;33;20138;-65
2022/06/21 06:31:02;;;;;;;;;;;;;;;;;;4288982;33;20135;-66
2022/06/21 06:33:32;;;;;;;;;;;;;;;;;;4286467;33;20090;-67
2022/06/21 06:36:03;;;;;;;4.20;1.62;;;;;;;;;;4275779;33;20081;-66
2022/06/21 06:38:29;;;;;;;4.90;2.10;;;;;;;;;;4275155;33;20116;-66
2022/06/21 06:41:17;;;;;;;1.40;1.30;;;;;;;;;;4289067;33;20284;-66
2022/06/21 06:44:12;;;;;;;4.12;1.52;;;;;;;;;;4286320;33;20120;-65
2022/06/21 06:46:43;;;;;;;1.77;1.67;;;;;;;;;;4282191;33;20124;-65
2022/06/21 06:49:38;;;;;;;2.75;1.80;;;;;;;;;;4288576;33;20178;-65
2022/06/21 06:52:24;;;;;;;1.98;1.60;;;;;;;;;;4273584;33;20180;-65
2022/06/21 06:55:05;;;;;;;2.97;1.73;;;;;;;;;;4287933;33;20119;-65
2022/06/21 06:58:05;;;;;;;3.92;1.65;;;;;;;;;;4274899;33;20499;-63
2022/06/21 07:00:37;;;;;;;4.55;2.15;;;;;;;;;;4269528;33;20138;-64
2022/06/21 07:03:09;;;;;;;3.17;2.25;;;;;;;;;;4275049;33;20100;-65
2022/06/21 07:05:47;;;;;;;5.60;2.28;;;;;;;;;;4275209;33;20127;-65
2022/06/21 07:08:49;;;;;;;2.85;1.80;;;;;;;;;;4275014;33;20131;-67
2022/06/21 07:11:33;;;;;;;4.97;2.05;;;;;;;;;;4275453;33;20217;-66
2022/06/21 07:13:59;;;;;;;1.90;1.65;;;;;;;;;;4288222;33;20519;-68
2022/06/21 07:16:26;;;;;;;1.08;1.08;;;;;;;;;;4288536;33;20131;-67
2022/06/21 07:18:56;;;;;;;1.08;1.08;;;;;;;;;;4288236;33;20088;-66
2022/06/21 07:21:23;;;;;;;1.50;1.12;;;;;;;;;;4275208;33;20531;-67
2022/06/21 07:23:52;;;;;;;2.42;1.50;;;;;;;;;;4275449;33;20147;-65
2022/06/21 07:26:28;;;;;;;2.10;1.60;;;;;;;;;;4288377;33;20210;-68
2022/06/21 07:29:10;;;;;;;2.65;1.70;;;;;;;;;;4288051;33;20128;-67
2022/06/21 07:31:59;;;;;;;1.60;1.50;;;;;;;;;;4275505;33;20114;-65
2022/06/21 07:34:41;;;;;;;5.80;1.80;;;;;;;;;;4274834;33;20192;-66
2022/06/21 07:37:27;;;;;;;1.62;1.50;;;;;;;;;;4288310;33;20123;-67
2022/06/21 07:39:55;;;;;;;1.10;1.10;;;;;;;;;;4260787;33;20642;-64
2022/06/21 07:42:32;;;;;;;4.40;1.75;;;;;;;;;;4260758;33;20673;-63
2022/06/21 07:45:05;;;;;;;1.35;1.25;;;;;;;;;;4275015;33;20091;-63
2022/06/21 07:47:39;;;;;;;1.37;1.27;;;;;;;;;;4287525;33;20135;-64
2022/06/21 07:50:33;;;;;;;2.95;1.65;;;;;;;;;;4288347;33;20126;-65
2022/06/21 07:53:04;;;;;;;1.10;1.10;;;;;;;;;;4281015;33;20112;-63
2022/06/21 07:55:35;;;;;;;1.30;1.30;;;;;;;;;;4248863;33;20206;-62
2022/06/21 07:58:09;;;;;;;2.62;1.35;;;;;;;;;;4277648;33;20111;-63
2022/06/21 08:09:29;;;;;;;1.62;1.52;;;;;;;;;;4264605;33;20127;-63
2022/06/21 08:12:00;;;;;;;1.85;1.40;;;;;;;;;;4285776;33;20447;-63
2022/06/21 08:14:31;;;;;;;1.73;1.60;;;;;;;;;;4262358;33;20111;-62
2022/06/21 08:17:03;;;;;;;1.10;1.10;;;;;;;;;;4289690;33;20096;-63
2022/06/21 08:20:00;;;;;;;1.02;1.02;;;;;;;;;;4289585;33;20222;-64
2022/06/21 08:22:31;;;;;;;1.52;1.30;;;;;;;;;;4268839;33;20107;-64
2022/06/21 08:25:19;;;;;;;2.60;1.52;;;;;;;;;;4290248;33;20748;-66
2022/06/21 08:27:58;;;;;;;1.10;1.10;;;;;;;;;;4289527;33;20452;-64
2022/06/21 08:30:36;;;;;;;2.47;1.90;;;;;;;;;;4276093;33;20134;-63
2022/06/21 08:33:09;;;;;;;8.73;1.62;;;;;;;;;;4275192;33;20202;-64
2022/06/21 08:35:40;;;;;;;1.92;1.52;;;;;;;;;;4276395;33;20452;-63
2022/06/21 08:38:07;;;;;;;2.97;1.90;;;;;;;;;;4289456;33;20134;-63
2022/06/21 08:40:33;;;;;;;2.15;1.85;;;;;;;;;;4275152;33;20201;-63
2022/06/21 08:43:17;;;;;;;2.67;1.50;;;;;;;;;;4289814;33;20502;-66
2022/06/21 08:46:16;;;;;;;2.78;1.73;;;;;;;;;;4290066;33;20091;-64
2022/06/21 08:48:48;;;;;;;2.28;1.40;;;;;;;;;;4288148;33;20120;-63
2022/06/21 08:51:38;;;;;;;7.05;1.67;;;;;;;;;;4289059;33;20124;-63
2022/06/21 08:54:26;;;;;;;2.72;1.65;;;;;;;;;;4276099;33;20111;-63
2022/06/21 08:57:21;;;;;;;4.72;1.40;;;;;;;;;;4276351;33;20218;-67
2022/06/21 09:00:33;;;;;;;4.62;1.83;;;;;;;;;;4274742;33;20108;-65
2022/06/21 09:03:04;;;;;;;3.97;1.67;;;;;;;;;;4257061;33;20128;-65
2022/06/21 09:05:37;;;;;;;4.15;1.77;;;;;;;;;;4256003;33;20124;-64
2022/06/21 09:08:08;;;;;;;4.70;1.95;;;;;;;;;;4273802;33;20115;-65
2022/06/21 09:10:46;;;;;;;3.75;2.08;;;;;;;;;;4286727;33;20111;-63
2022/06/21 09:13:40;;;;;;;2.85;1.58;;;;;;;;;;4285649;33;20198;-64
2022/06/21 09:16:23;;;;;;;2.72;1.70;;;;;;;;;;4274460;33;20120;-63
2022/06/21 09:19:18;;;;;;;5.87;2.20;;;;;;;;;;4274620;33;20574;-64
2022/06/21 09:22:13;;;;;;;6.30;1.75;;;;;;;;;;4270833;33;20104;-64
2022/06/21 09:24:41;;;;;;;1.35;1.25;;;;;;;;;;4277861;33;20203;-64
2022/06/21 09:27:27;;;;;;;4.65;1.70;;;;;;;;;;4275971;33;20134;-64
2022/06/21 09:30:04;;;;;;;3.90;1.52;;;;;;;;;;4276042;33;20488;-66
2022/06/21 09:32:35;;;;;;;3.78;1.80;;;;;;;;;;4289406;33;20194;-67
2022/06/21 09:35:37;;;;;;;3.03;1.65;;;;;;;;;;4276230;33;20116;-64
2022/06/21 09:38:48;;;;;;;3.22;1.92;;;;;;;;;;4279814;33;20195;-62
2022/06/21 09:41:20;;;;;;;1.90;1.70;;;;;;;;;;4258591;33;20096;-61
2022/06/21 09:44:05;;;;;;;1.70;1.60;;;;;;;;;;4273405;33;20105;-62
2022/06/21 09:46:54;;;;;;;5.37;1.85;;;;;;;;;;4289146;33;20504;-63
2022/06/21 09:49:29;;;;;;;3.83;1.50;;;;;;;;;;4264101;33;20115;-64
2022/06/21 09:52:22;;;;;;;2.53;1.83;;;;;;;;;;4288863;33;20123;-64
2022/06/21 09:55:21;;;;;;;2.87;1.83;;;;;;;;;;4271238;33;20210;-66
2022/06/21 09:57:53;;;;;;;1.92;1.40;;;;;;;;;;4263588;33;20105;-61
2022/06/21 10:00:39;;;;;;;5.25;1.70;;;;;;;;;;4275911;33;20193;-66
2022/06/21 10:03:05;;;;;;;1.37;1.27;;;;;;;;;;4276009;33;20189;-65
2022/06/21 10:05:34;;;;;;;5.25;1.60;;;;;;;;;;4289446;33;20119;-62
2022/06/21 10:08:41;;;;;;;1.45;1.30;;;;;;;;;;4289269;33;20092;-63
2022/06/21 10:11:22;;;;;;;5.78;1.67;;;;;;;;;;4289231;33;20238;-62
2022/06/21 10:14:06;;;;;;;1.90;1.30;;;;;;;;;;4289208;33;20103;-62
2022/06/21 10:17:02;;;;;;;3.72;1.62;;;;;;;;;;4288917;33;20106;-60
2022/06/21 10:19:36;;;;;;;3.10;1.67;;;;;;;;;;4289218;33;20096;-60
2022/06/21 10:22:13;;;;;;;1.95;1.60;;;;;;;;;;4288955;33;20096;-61
2022/06/21 10:25:14;;;;;;;3.37;1.40;;;;;;;;;;4289283;33;20111;-60
2022/06/21 10:27:46;;;;;;;2.70;1.60;;;;;;;;;;4275391;33;20499;-61
2022/06/21 10:30:17;;;;;;;5.82;1.12;;;;;;;;;;4289227;33;20120;-60
2022/06/21 10:32:58;;;;;;;3.92;1.50;;;;;;;;;;4289032;33;20115;-60
2022/06/21 10:35:31;;;;;;;2.28;1.58;;;;;;;;;;4288994;33;20111;-60
2022/06/21 10:38:18;;;;;;;2.17;1.62;;;;;;;;;;4275273;33;20127;-60
2022/06/21 10:40:58;;;;;;;3.90;1.48;;;;;;;;;;4275131;33;20134;-60
2022/06/21 10:43:46;;;;;;;2.65;1.50;;;;;;;;;;4275808;33;20127;-59
2022/06/21 10:46:26;;;;;;;3.17;1.37;;;;;;;;;;4288972;33;20088;-60
2022/06/21 10:49:11;;;;;;;2.75;2.33;;;;;;;;;;4275349;33;20107;-60
2022/06/21 10:51:47;;;;;;;4.20;1.80;;;;;;;;;;4286930;33;20112;-61
2022/06/21 10:55:04;;;;;;;5.65;2.03;;;;;;;;;;4271499;33;20100;-61
2022/06/21 10:57:54;;;;;;;2.35;1.48;;;;;;;;;;4228972;33;20560;-62
2022/06/21 11:03:22;;;;;;;2.17;1.70;;;;;;;;;;4277385;33;20141;-60
2022/06/21 11:06:00;;;;;;;6.50;2.50;;;;;;;;;;4275222;33;20538;-61
2022/06/21 11:08:28;;;;;;;2.50;1.67;;;;;;;;;;4288614;33;20131;-61
2022/06/21 11:11:06;;;;;;;2.35;1.67;;;;;;;;;;4288572;33;20453;-61
2022/06/21 11:13:46;;;;;;;2.78;1.60;;;;;;;;;;4288072;33;20468;-62
2022/06/21 11:16:31;;;;;;;1.92;1.50;;;;;;;;;;4288500;33;20662;-61
2022/06/21 11:19:27;;;;;;;3.30;1.50;;;;;;;;;;4275139;33;20125;-62
2022/06/21 11:22:05;;;;;;;2.12;1.50;;;;;;;;;;4288411;33;20190;-61
2022/06/21 11:25:07;;;;;;;1.60;1.50;;;;;;;;;;4288260;33;20087;-61
2022/06/21 11:27:58;;;;;;;1.52;1.40;;;;;;;;;;4287780;33;20547;-65
2022/06/21 11:30:57;;;;;;;1.75;1.65;;;;;;;;;;4288531;33;20452;-62
2022/06/21 11:33:51;;;;;;;2.80;1.60;;;;;;;;;;4287864;33;20197;-63
2022/06/21 11:36:17;;;;;;;2.70;1.65;;;;;;;;;;4288541;33;20116;-62
2022/06/21 11:39:01;;;;;;;5.93;1.73;;;;;;;;;;4287931;33;20449;-61
2022/06/21 11:44:48;;;;;;;3.37;1.73;;;;;;;;;;4288146;33;20131;-63
2022/06/21 11:47:48;;;;;;;4.65;1.73;;;;;;;;;;4288214;33;20186;-62
2022/06/21 11:50:44;;;;;;;1.98;1.70;;;;;;;;;;4274727;33;20559;-61
2022/06/21 11:53:34;;;;;;;1.90;1.70;;;;;;;;;;4272837;33;20107;-63
2022/06/21 11:56:06;;;;;;;4.30;1.40;;;;;;;;;;4290315;33;20617;-62
2022/06/21 11:58:44;;;;;;;2.87;1.90;;;;;;;;;;4276803;33;20115;-62
2022/06/21 12:01:33;;;;;;;3.00;1.60;;;;;;;;;;4277248;33;20134;-62
2022/06/21 12:04:24;;;;;;;5.47;1.60;;;;;;;;;;4289816;33;20120;-62
2022/06/21 12:06:58;;;;;;;8.27;1.80;;;;;;;;;;4276791;33;20115;-62
2022/06/21 12:09:41;;;;;;;10.35;1.90;;;;;;;;;;4290115;33;20111;-62
2022/06/21 12:12:37;;;;;;;1.92;1.40;;;;;;;;;;4290476;33;20146;-61
2022/06/21 12:15:23;;;;;;;4.50;1.60;;;;;;;;;;4290465;33;20104;-62
2022/06/21 12:18:19;;;;;;;2.58;1.80;;;;;;;;;;4277025;33;20146;-62
2022/06/21 12:21:09;;;;;;;4.20;1.30;;;;;;;;;;4290393;33;20126;-62
2022/06/21 12:23:49;;;;;;;1.62;1.50;;;;;;;;;;4290017;33;20131;-61
2022/06/21 12:26:21;;;;;;;4.07;1.50;;;;;;;;;;4290369;33;20106;-61
2022/06/21 12:28:48;;;;;;;3.47;1.50;;;;;;;;;;4289869;33;20198;-62
2022/06/21 12:31:28;;;;;;;1.75;1.60;;;;;;;;;;4290426;33;20211;-62
2022/06/21 12:34:29;;;;;;;2.22;1.50;;;;;;;;;;4276072;33;20146;-62
2022/06/21 12:37:05;;;;;;;4.15;1.70;;;;;;;;;;4290018;33;20496;-63
2022/06/21 12:39:39;;;;;;;2.83;1.48;;;;;;;;;;4289944;33;20211;-62
2022/06/21 12:42:23;;;;;;;2.33;1.40;;;;;;;;;;4290336;33;20119;-62
2022/06/21 12:44:58;;;;;;;4.00;1.50;;;;;;;;;;4275938;33;20139;-63
2022/06/21 12:47:51;;;;;;;2.60;1.55;;;;;;;;;;4275970;33;20186;-62
2022/06/21 12:50:40;;;;;;;1.67;1.20;;;;;;;;;;4290500;33;20106;-62
2022/06/21 12:53:11;;;;;;;5.72;1.83;;;;;;;;;;4275472;33;20154;-62
2022/06/21 12:55:42;;;;;;;4.57;1.73;;;;;;;;;;4290052;33;20134;-63
2022/06/21 12:58:10;;;;;;;2.85;1.73;;;;;;;;;;4276549;33;20116;-62
2022/06/21 13:00:47;;;;;;;3.47;1.50;;;;;;;;;;4290066;33;20119;-63
2022/06/21 13:03:15;;;;;;;4.40;1.90;;;;;;;;;;4275704;33;20123;-63
2022/06/21 13:06:03;;;;;;;3.15;1.90;;;;;;;;;;4289805;33;20100;-64
2022/06/21 13:09:02;;;;;;;5.80;2.65;;;;;;;;;;4289521;33;20147;-61
2022/06/21 13:11:53;;;;;;;1.50;1.40;;;;;;;;;;4289862;33;20099;-62
2022/06/21 13:14:47;;;;;;;4.68;1.60;;;;;;;;;;4264165;33;20195;-64
2022/06/21 13:17:25;;;;;;;3.12;1.37;;;;;;;;;;4276343;33;20151;-64
2022/06/21 13:19:59;;;;;;;1.85;1.48;;;;;;;;;;4289928;33;20096;-64
2022/06/21 13:22:47;;;;;;;4.53;1.58;;;;;;;;;;4276228;33;20214;-63
2022/06/21 13:25:40;;;;;;;10.15;1.95;;;;;;;;;;4276222;33;20118;-64
2022/06/21 13:28:26;;;;;;;6.18;1.52;;;;;;;;;;4276063;33;20119;-64
2022/06/21 13:30:54;;;;;;;3.45;1.67;;;;;;;;;;4276583;33;20104;-64
2022/06/21 13:34:12;;;;;;;3.42;1.65;;;;;;;;;;4276022;33;20119;-63
2022/06/21 13:36:44;;;;;;;1.60;1.35;;;;;;;;;;4261284;33;20127;-63
2022/06/21 13:39:26;;;;;;;3.08;1.77;;;;;;;;;;4276041;33;20114;-64
2022/06/21 13:45:10;;;;;;;2.75;1.90;;;;;;;;;;4275794;33;20127;-61
2022/06/21 13:48:33;;;;;;;3.08;1.80;;;;;;;;;;4289646;33;20195;-65
2022/06/21 13:51:14;;;;;;;2.17;1.95;;;;;;;;;;4258374;33;20519;-62
2022/06/21 13:53:58;;;;;;;2.45;1.58;;;;;;;;;;4245166;33;20112;-63
2022/06/21 13:56:41;;;;;;;2.47;1.45;;;;;;;;;;4283536;33;20127;-62
2022/06/21 13:59:17;;;;;;;2.97;1.80;;;;;;;;;;4289608;33;20119;-63
2022/06/21 14:01:49;;;;;;;2.78;1.40;;;;;;;;;;4289407;33;20507;-63
2022/06/21 14:04:17;;;;;;;5.45;2.42;;;;;;;;;;4289063;33;20159;-63
2022/06/21 14:06:57;;;;;;;2.70;1.87;;;;;;;;;;4289076;33;20100;-60
2022/06/21 14:09:47;;;;;;;3.25;1.95;;;;;;;;;;4275981;33;20080;-65
2022/06/21 14:12:37;;;;;;;2.40;1.73;;;;;;;;;;4275957;33;20108;-62
2022/06/21 14:15:05;;;;;;;4.10;1.80;;;;;;;;;;4289243;33;20088;-62
2022/06/21 14:17:52;;;;;;;8.80;2.22;;;;;;;;;;4288898;33;20136;-63
2022/06/21 14:20:52;;;;;;;3.50;1.87;;;;;;;;;;4289215;33;20131;-63
2022/06/21 14:23:31;;;;;;;2.60;1.73;;;;;;;;;;4288959;33;20120;-63
2022/06/21 14:26:15;;;;;;;3.65;1.70;;;;;;;;;;4275438;33;20119;-62
2022/06/21 14:28:50;;;;;;;3.15;1.98;;;;;;;;;;4275523;33;20119;-63
2022/06/21 14:31:35;;;;;;;3.03;1.87;;;;;;;;;;4289328;33;20108;-60
2022/06/21 14:34:05;;;;;;;3.55;2.00;;;;;;;;;;4288740;33;20199;-61
2022/06/21 14:36:46;;;;;;;1.85;1.60;;;;;;;;;;4288527;33;20118;-62
2022/06/21 14:39:33;;;;;;;3.78;1.90;;;;;;;;;;4288826;33;20092;-62
2022/06/21 14:42:14;;;;;;;3.37;1.95;;;;;;;;;;4289018;33;20534;-62
2022/06/21 14:45:05;;;;;;;1.90;1.75;;;;;;;;;;4274829;33;20506;-62
2022/06/21 14:47:35;;;;;;;4.05;2.17;;;;;;;;;;4288560;33;20127;-63
2022/06/21 14:50:12;;;;;;;4.62;2.10;;;;;;;;;;4288929;33;20460;-60
2022/06/21 14:52:57;;;;;;;3.80;1.92;;;;;;;;;;4287004;33;20119;-61
2022/06/21 14:55:41;;;;;;;3.25;2.33;;;;;;;;;;4264733;33;20189;-62
2022/06/21 14:58:20;;;;;;;3.70;2.10;;;;;;;;;;4288989;33;20106;-60
2022/06/21 15:01:37;;;;;;;8.65;2.25;;;;;;;;;;4288742;33;20130;-63
2022/06/21 15:04:17;;;;;;;4.57;2.40;;;;;;;;;;4271619;33;20127;-62
2022/06/21 15:06:43;;;;;;;4.22;1.92;;;;;;;;;;4273559;33;20183;-62
2022/06/21 15:09:28;;;;;;;5.07;2.83;;;;;;;;;;4275411;33;20511;-62
2022/06/21 15:12:03;;;;;;;4.85;2.30;;;;;;;;;;4275880;33;20186;-61
2022/06/21 15:14:52;;;;;;;2.50;2.20;;;;;;;;;;4287600;33;20217;-60
2022/06/21 15:17:38;;;;;;;4.82;1.90;;;;;;;;;;4271828;33;20108;-63
2022/06/21 15:20:57;;;;;;;8.23;3.55;;;;;;;;;;4274147;33;20092;-62
2022/06/21 15:23:46;;;;;;;5.75;2.50;;;;;;;;;;4255667;33;20139;-62
2022/06/21 15:26:17;;;;;;;3.08;2.03;;;;;;;;;;4288494;33;20194;-61
2022/06/21 15:28:46;;;;;;;6.05;2.17;;;;;;;;;;4289313;33;20100;-62
2022/06/21 15:31:14;;;;;;;8.43;2.60;;;;;;;;;;4276377;33;20448;-62
2022/06/21 15:33:58;;;;;;;3.12;1.98;;;;;;;;;;4289133;33;20190;-63
2022/06/21 15:36:29;;;;;;;6.00;2.30;;;;;;;;;;4287598;33;20253;-61
2022/06/21 15:39:15;;;;;;;6.80;1.77;;;;;;;;;;4286709;33;20135;-64
2022/06/21 15:41:56;;;;;;;1.55;1.45;;;;;;;;;;4272736;33;20096;-63
2022/06/21 15:44:39;;;;;;;4.47;1.65;;;;;;;;;;4275021;33;20127;-64
2022/06/21 15:50:14;;;;;;;4.07;1.80;;;;;;;;;;4278228;33;20160;-63
2022/06/21 15:53:03;;;;;;;4.93;1.85;;;;;;;;;;4288942;33;20120;-64
2022/06/21 15:55:38;;;;;;;2.47;1.87;;;;;;;;;;4289963;33;20130;-64
2022/06/21 15:58:38;;;;;;;3.08;1.80;;;;;;;;;;4277032;33;20104;-63
2022/06/21 16:01:13;;;;;;;2.37;1.83;;;;;;;;;;4277024;33;20519;-63
2022/06/21 16:04:03;;;;;;;2.67;1.87;;;;;;;;;;4290092;33;20099;-63
2022/06/21 16:06:38;;;;;;;3.28;2.30;;;;;;;;;;4276730;33;20120;-63
2022/06/21 16:09:08;;;;;;;3.53;2.12;;;;;;;;;;4277278;33;20108;-63
2022/06/21 16:11:48;;;;;;;1.60;1.50;;;;;;;;;;4277131;33;20115;-62
2022/06/21 16:14:27;;;;;;;5.15;1.70;;;;;;;;;;4277119;33;20211;-62
2022/06/21 16:17:01;;;;;;;10.30;1.73;;;;;;;;;;4277038;33;20225;-60
2022/06/21 16:19:28;;;;;;;5.72;3.17;;;;;;;;;;4265082;33;20126;-61
2022/06/21 16:21:58;;;;;;;10.90;4.68;;;;;;;;;;4277127;33;20528;-61
2022/06/21 16:24:35;;;;;;;12.00;6.37;;;;;;;;;;4277074;33;20108;-61
2022/06/21 16:27:17;;;;;;;12.77;8.05;;;;;;;;;;4290329;33;20114;-62
2022/06/21 16:30:07;;;;;;;25.52;9.95;;;;;;;;;;4290378;33;20100;-63
2022/06/21 16:35:50;;;;;;;19.42;10.05;;;;;;;;;;4289365;33;20515;-62
2022/06/21 16:38:44;;;;;;;29.67;10.32;;;;;;;;;;4289793;33;20092;-63
2022/06/21 16:44:26;;;;;;;15.82;9.10;;;;;;;;;;4290074;33;20107;-65
2022/06/21 16:46:57;;;;;;;18.05;8.52;;;;;;;;;;4290216;33;20111;-62
2022/06/21 16:49:40;;;;;;;13.00;8.18;;;;;;;;;;4290137;33;20531;-62
2022/06/21 16:52:26;;;;;;;16.15;8.82;;;;;;;;;;4276875;33;20127;-62